createdAt,value
2022-08-04T00:00:07.908Z,2.42
2022-08-04T00:02:53.453Z,2.22
2022-08-04T00:05:47.888Z,2.50
2022-08-04T00:08:42.238Z,3.20
2022-08-04T00:11:11.993Z,1.98
2022-08-04T00:13:58.161Z,2.08
2022-08-04T00:16:37.871Z,2.60
2022-08-04T00:19:11.057Z,2.58
2022-08-04T00:21:39.589Z,2.85
2022-08-04T00:24:11.344Z,2.33
2022-08-04T00:26:39.041Z,2.67
2022-08-04T00:29:05.796Z,2.30
2022-08-04T00:31:53.655Z,1.95
2022-08-04T00:34:19.371Z,2.17
2022-08-04T00:36:45.944Z,2.22
2022-08-04T00:39:14.082Z,3.00
2022-08-04T00:41:56.694Z,2.28
2022-08-04T00:44:35.532Z,2.15
2022-08-04T00:47:12.284Z,2.78
2022-08-04T00:49:57.364Z,2.67
2022-08-04T00:52:32.985Z,3.13
2022-08-04T00:55:24.395Z,2.75
2022-08-04T00:58:18.918Z,2.80
2022-08-04T01:00:58.404Z,2.95
2022-08-04T01:03:49.653Z,2.45
2022-08-04T01:06:25.314Z,3.17
2022-08-04T01:09:21.712Z,2.80
2022-08-04T01:11:58.689Z,2.33
2022-08-04T01:14:49.843Z,3.83
2022-08-04T01:17:38.265Z,2.58
2022-08-04T01:20:08.551Z,2.33
2022-08-04T01:22:34.856Z,2.88
2022-08-04T01:25:10.376Z,2.45
2022-08-04T01:28:15.905Z,2.78
2022-08-04T01:30:46.120Z,4.05
2022-08-04T01:33:17.904Z,2.55
2022-08-04T01:36:10.451Z,3.17
2022-08-04T01:38:39.816Z,3.13
2022-08-04T01:41:08.655Z,3.10
2022-08-04T01:43:36.279Z,2.95
2022-08-04T01:46:04.937Z,2.90
2022-08-04T01:48:32.032Z,3.13
2022-08-04T01:51:04.376Z,3.03
2022-08-04T01:53:35.041Z,2.80
2022-08-04T01:56:02.896Z,2.53
2022-08-04T01:58:31.593Z,2.10
2022-08-04T02:01:05.082Z,3.45
2022-08-04T02:04:21.273Z,2.67
2022-08-04T02:06:38.630Z,2.83
2022-08-04T02:09:24.541Z,2.65
2022-08-04T02:12:03.953Z,3.17
2022-08-04T02:14:40.970Z,2.83
2022-08-04T02:17:11.555Z,2.85
2022-08-04T02:19:58.798Z,2.67
2022-08-04T02:22:27.245Z,3.05
2022-08-04T02:25:02.699Z,2.97
2022-08-04T02:28:00.335Z,3.50
2022-08-04T02:30:21.121Z,2.87
2022-08-04T02:32:49.131Z,2.80
2022-08-04T02:35:25.223Z,2.92
2022-08-04T02:38:00.393Z,2.63
2022-08-04T02:40:30.026Z,2.85
2022-08-04T02:42:57.608Z,2.38
2022-08-04T02:45:25.553Z,3.13
2022-08-04T02:48:28.719Z,2.47
2022-08-04T02:50:41.404Z,3.10
2022-08-04T02:53:09.884Z,3.22
2022-08-04T02:55:36.609Z,3.20
2022-08-04T02:58:04.401Z,2.50
2022-08-04T03:00:31.198Z,3.15
2022-08-04T03:03:13.603Z,3.05
2022-08-04T03:06:11.515Z,2.97
2022-08-04T03:08:47.053Z,2.72
2022-08-04T03:11:35.288Z,2.60
2022-08-04T03:14:26.397Z,2.67
2022-08-04T03:17:17.079Z,2.60
2022-08-04T03:20:07.924Z,2.40
2022-08-04T03:22:34.225Z,2.28
2022-08-04T03:25:17.870Z,2.65
2022-08-04T03:28:01.427Z,2.50
2022-08-04T03:31:04.969Z,2.42
2022-08-04T03:33:46.501Z,2.40
2022-08-04T03:36:12.858Z,2.53
2022-08-04T03:39:16.575Z,2.97
2022-08-04T03:41:55.118Z,2.45
2022-08-04T03:44:31.144Z,3.08
2022-08-04T03:47:18.738Z,2.90
2022-08-04T03:50:02.920Z,3.10
2022-08-04T03:53:04.962Z,2.83
2022-08-04T03:55:49.315Z,2.45
2022-08-04T03:58:34.176Z,3.10
2022-08-04T04:01:16.768Z,3.20
2022-08-04T04:04:02.022Z,2.58
2022-08-04T04:07:15.070Z,3.65
2022-08-04T04:10:05.994Z,2.95
2022-08-04T04:13:16.185Z,2.63
2022-08-04T04:15:55.739Z,2.47
2022-08-04T04:18:42.921Z,2.65
2022-08-04T04:21:28.440Z,3.50
2022-08-04T04:24:16.640Z,3.58
2022-08-04T04:26:59.054Z,4.00
2022-08-04T04:29:50.381Z,3.33
2022-08-04T04:32:32.585Z,3.30
2022-08-04T04:35:30.156Z,3.67
2022-08-04T04:38:29.228Z,3.60
2022-08-04T04:41:14.524Z,3.50
2022-08-04T04:43:50.888Z,4.28
2022-08-04T04:46:30.781Z,6.50
2022-08-04T04:49:33.533Z,5.60
2022-08-04T04:52:24.514Z,5.80
2022-08-04T04:55:00.603Z,5.22
2022-08-04T04:57:54.715Z,4.80
2022-08-04T05:00:17.515Z,6.22
2022-08-04T05:03:42.837Z,5.85
2022-08-04T05:06:28.306Z,5.88
2022-08-04T05:09:16.779Z,6.40
2022-08-04T05:11:57.427Z,6.00
2022-08-04T05:14:41.192Z,5.63
2022-08-04T05:17:24.841Z,5.22
2022-08-04T05:20:04.445Z,5.47
2022-08-04T05:22:37.680Z,5.07
2022-08-04T05:25:32.356Z,4.70
2022-08-04T05:28:15.433Z,4.82
2022-08-04T05:30:49.658Z,5.50
2022-08-04T05:33:28.781Z,4.80
2022-08-04T05:36:21.706Z,4.10
2022-08-04T05:38:46.346Z,4.55
2022-08-04T05:41:12.977Z,4.22
2022-08-04T05:43:43.276Z,4.10
2022-08-04T05:46:11.066Z,4.88
2022-08-04T05:48:37.684Z,4.45
2022-08-04T05:51:05.449Z,5.13
2022-08-04T05:53:32.475Z,5.97
2022-08-04T05:55:59.972Z,5.68
2022-08-04T05:58:29.752Z,5.55
2022-08-04T06:00:57.213Z,5.80
2022-08-04T06:03:24.023Z,5.18
2022-08-04T06:05:51.651Z,5.18
2022-08-04T06:08:18.127Z,6.20
2022-08-04T06:10:46.219Z,5.32
2022-08-04T06:13:47.930Z,5.57
2022-08-04T06:16:02.283Z,5.10
2022-08-04T06:18:42.180Z,4.93
2022-08-04T06:21:18.963Z,4.75
2022-08-04T06:23:53.675Z,4.03
2022-08-04T06:26:28.764Z,4.53
2022-08-04T06:28:56.366Z,4.70
2022-08-04T06:32:27.708Z,4.75
2022-08-04T06:34:30.180Z,4.63
2022-08-04T06:36:57.376Z,4.43
2022-08-04T06:39:25.162Z,4.15
2022-08-04T06:41:55.313Z,4.13
2022-08-04T06:44:40.596Z,4.05
2022-08-04T06:47:07.370Z,4.00
2022-08-04T06:51:23.476Z,4.45
2022-08-04T06:52:21.791Z,4.03
2022-08-04T06:54:49.050Z,4.00
2022-08-04T06:57:23.055Z,3.78
2022-08-04T06:59:57.257Z,3.65
2022-08-04T07:02:26.775Z,4.55
2022-08-04T07:04:53.370Z,3.90
2022-08-04T07:07:20.258Z,3.40
2022-08-04T07:10:03.527Z,4.30
2022-08-04T07:12:30.248Z,3.83
2022-08-04T07:14:57.440Z,2.88
2022-08-04T07:17:24.335Z,3.30
2022-08-04T07:19:56.244Z,3.75
2022-08-04T07:22:25.800Z,2.83
2022-08-04T07:24:56.463Z,2.97
2022-08-04T07:27:48.235Z,2.92
2022-08-04T07:30:11.020Z,2.95
2022-08-04T07:32:38.037Z,2.83
2022-08-04T07:35:06.453Z,3.08
2022-08-04T07:37:39.270Z,3.72
2022-08-04T07:40:07.551Z,3.30
2022-08-04T07:42:34.137Z,2.78
2022-08-04T07:45:00.706Z,2.90
2022-08-04T07:47:27.548Z,3.03
2022-08-04T07:49:57.548Z,2.67
2022-08-04T07:52:25.798Z,2.95
2022-08-04T07:54:52.942Z,3.30
2022-08-04T07:57:39.736Z,2.90
2022-08-04T08:00:08.239Z,3.58
2022-08-04T08:02:35.622Z,3.35
2022-08-04T08:05:02.551Z,2.70
2022-08-04T08:07:28.981Z,2.80
2022-08-04T08:09:55.398Z,2.85
2022-08-04T08:12:36.468Z,2.83
2022-08-04T08:15:15.838Z,2.83
2022-08-04T08:17:57.710Z,2.63
2022-08-04T08:20:29.581Z,2.97
2022-08-04T08:22:56.480Z,2.55
2022-08-04T08:25:22.921Z,2.90
2022-08-04T08:27:56.395Z,2.63
2022-08-04T08:30:23.869Z,2.60
2022-08-04T08:32:50.667Z,2.58
2022-08-04T08:35:17.598Z,2.05
2022-08-04T08:37:56.259Z,2.00
2022-08-04T08:40:41.079Z,2.22
2022-08-04T08:44:06.226Z,2.33
2022-08-04T08:46:48.964Z,2.80
2022-08-04T08:50:00.416Z,2.10
2022-08-04T08:53:01.680Z,2.45
2022-08-04T08:56:02.734Z,2.50
2022-08-04T08:58:35.688Z,2.50
2022-08-04T09:01:13.337Z,3.03
2022-08-04T09:03:58.610Z,2.45
2022-08-04T09:06:47.964Z,1.88
2022-08-04T09:09:30.956Z,2.10
2022-08-04T09:12:06.063Z,2.13
2022-08-04T09:14:41.983Z,1.70
2022-08-04T09:17:18.544Z,2.05
2022-08-04T09:19:52.321Z,1.80
2022-08-04T09:22:24.345Z,2.00
2022-08-04T09:25:13.819Z,2.08
2022-08-04T09:27:46.211Z,2.13
2022-08-04T09:30:14.239Z,1.65
2022-08-04T09:32:41.372Z,2.85
2022-08-04T09:35:19.977Z,3.92
2022-08-04T09:38:12.489Z,2.10
2022-08-04T09:41:19.764Z,2.08
2022-08-04T09:44:52.325Z,1.83
2022-08-04T09:47:24.806Z,2.55
2022-08-04T09:50:22.022Z,1.70
2022-08-04T09:53:07.239Z,1.63
2022-08-04T09:55:53.610Z,1.90
2022-08-04T09:58:39.312Z,1.55
2022-08-04T10:01:21.058Z,1.40
2022-08-04T10:03:51.600Z,1.63
2022-08-04T10:06:42.933Z,2.38
2022-08-04T10:09:12.239Z,1.30
2022-08-04T10:11:56.210Z,1.50
2022-08-04T10:14:49.040Z,1.45
2022-08-04T10:17:55.020Z,1.30
2022-08-04T10:20:45.587Z,1.90
2022-08-04T10:23:56.299Z,1.50
2022-08-04T10:26:32.075Z,1.20
2022-08-04T10:29:03.571Z,1.45
2022-08-04T10:31:36.530Z,1.38
2022-08-04T10:34:11.837Z,1.52
2022-08-04T10:36:47.123Z,1.55
2022-08-04T10:39:42.631Z,1.30
2022-08-04T10:42:25.398Z,1.38
2022-08-04T10:45:23.762Z,1.27
2022-08-04T10:48:10.732Z,1.08
2022-08-04T10:50:40.496Z,1.45
2022-08-04T10:53:13.928Z,1.20
2022-08-04T10:56:07.111Z,1.17
2022-08-04T10:58:47.414Z,1.27
2022-08-04T11:02:01.086Z,1.20
2022-08-04T11:04:27.553Z,1.13
2022-08-04T11:06:55.464Z,1.23
2022-08-04T11:09:22.614Z,1.23
2022-08-04T11:12:01.116Z,1.70
2022-08-04T11:14:33.966Z,1.33
2022-08-04T11:17:07.440Z,1.48
2022-08-04T11:20:32.088Z,1.58
2022-08-04T11:23:20.426Z,1.27
2022-08-04T11:25:56.425Z,1.27
2022-08-04T11:28:39.478Z,1.58
2022-08-04T11:31:11.543Z,0.90
2022-08-04T11:33:48.094Z,1.35
2022-08-04T11:36:35.868Z,1.35
2022-08-04T11:39:11.251Z,1.40
2022-08-04T11:41:42.425Z,1.40
2022-08-04T11:44:12.898Z,1.40
2022-08-04T11:46:48.344Z,1.88
2022-08-04T11:49:57.041Z,1.52
2022-08-04T11:52:20.096Z,1.90
2022-08-04T11:54:52.473Z,2.17
2022-08-04T11:57:21.162Z,1.77
2022-08-04T11:59:49.013Z,1.65
2022-08-04T12:02:30.202Z,1.70
2022-08-04T12:04:59.507Z,1.70
2022-08-04T12:07:41.897Z,1.85
2022-08-04T12:10:41.097Z,1.58
2022-08-04T12:13:40.747Z,1.95
2022-08-04T12:16:18.560Z,2.15
2022-08-04T12:18:56.446Z,1.88
2022-08-04T12:21:33.874Z,2.13
2022-08-04T12:24:15.427Z,1.63
2022-08-04T12:26:47.139Z,1.83
2022-08-04T12:29:15.155Z,1.92
2022-08-04T12:31:51.808Z,2.45
2022-08-04T12:34:34.528Z,2.30
2022-08-04T12:37:10.226Z,2.20
2022-08-04T12:40:27.350Z,2.05
2022-08-04T12:42:33.128Z,1.75
2022-08-04T12:45:05.894Z,1.95
2022-08-04T12:47:32.450Z,2.20
2022-08-04T12:50:03.874Z,2.20
2022-08-04T12:53:01.136Z,2.10
2022-08-04T12:55:29.985Z,1.77
2022-08-04T12:57:56.658Z,1.80
2022-08-04T13:00:29.785Z,1.65
2022-08-04T13:03:09.802Z,2.20
2022-08-04T13:05:39.388Z,2.20
2022-08-04T13:08:06.436Z,2.10
2022-08-04T13:10:37.644Z,2.10
2022-08-04T13:13:04.424Z,1.92
2022-08-04T13:15:33.467Z,1.70
2022-08-04T13:18:15.534Z,1.85
2022-08-04T13:20:43.656Z,1.83
2022-08-04T13:23:12.327Z,2.35
2022-08-04T13:26:44.616Z,2.00
2022-08-04T13:28:32.225Z,2.15
2022-08-04T13:31:05.164Z,2.28
2022-08-04T13:33:38.372Z,2.15
2022-08-04T13:36:07.762Z,2.05
2022-08-04T13:38:36.709Z,2.03
2022-08-04T13:41:05.100Z,2.13
2022-08-04T13:44:18.252Z,2.58
2022-08-04T13:46:50.869Z,2.58
2022-08-04T13:49:48.527Z,2.65
2022-08-04T13:52:10.681Z,2.70
2022-08-04T13:54:42.587Z,3.40
2022-08-04T13:59:44.503Z,3.60
2022-08-04T14:02:26.530Z,3.30
2022-08-04T14:04:57.174Z,3.28
2022-08-04T14:07:25.616Z,2.73
2022-08-04T14:10:02.516Z,3.03
2022-08-04T14:12:38.833Z,2.90
2022-08-04T14:15:54.720Z,4.28
2022-08-04T14:18:34.723Z,2.55
2022-08-04T14:21:10.768Z,3.25
2022-08-04T14:23:46.953Z,2.72
2022-08-04T14:26:18.922Z,3.05
2022-08-04T14:29:28.723Z,3.63
2022-08-04T14:31:32.388Z,3.30
2022-08-04T14:34:03.894Z,3.47
2022-08-04T14:37:04.615Z,3.22
2022-08-04T14:40:19.400Z,3.20
2022-08-04T14:42:42.003Z,3.13
2022-08-04T14:45:08.980Z,2.90
2022-08-04T14:47:52.270Z,3.63
2022-08-04T14:50:20.033Z,2.63
2022-08-04T14:52:46.468Z,3.25
2022-08-04T14:55:23.879Z,2.90
2022-08-04T14:58:34.215Z,2.45
2022-08-04T15:00:37.873Z,2.30
2022-08-04T15:03:08.491Z,2.30
2022-08-04T15:06:01.818Z,5.30
2022-08-04T15:08:31.170Z,3.40
2022-08-04T15:11:02.722Z,2.20
2022-08-04T15:13:32.771Z,2.38
2022-08-04T15:16:06.361Z,2.97
2022-08-04T15:18:35.841Z,2.63
2022-08-04T15:21:02.826Z,2.25
2022-08-04T15:23:38.954Z,2.40
2022-08-04T15:26:09.116Z,2.45
2022-08-04T15:28:37.153Z,2.30
2022-08-04T15:31:04.709Z,2.63
2022-08-04T15:33:39.770Z,2.30
2022-08-04T15:36:13.217Z,2.58
2022-08-04T15:38:50.363Z,2.63
2022-08-04T15:41:35.549Z,2.50
2022-08-04T15:44:28.795Z,2.53
2022-08-04T15:47:04.309Z,2.85
2022-08-04T15:49:30.845Z,2.30
2022-08-04T15:52:01.736Z,2.05
2022-08-04T15:54:32.779Z,2.38
2022-08-04T15:57:02.052Z,2.72
2022-08-04T16:00:09.950Z,2.40
2022-08-04T16:02:43.516Z,2.45
2022-08-04T16:05:17.254Z,2.58
2022-08-04T16:07:59.822Z,2.40
2022-08-04T16:10:35.137Z,2.80
2022-08-04T16:13:14.520Z,2.40
2022-08-04T16:15:55.268Z,2.58
2022-08-04T16:18:30.517Z,2.60
2022-08-04T16:20:59.439Z,2.30
2022-08-04T16:23:54.132Z,2.15
2022-08-04T16:26:36.714Z,2.05
2022-08-04T16:29:40.259Z,2.53
2022-08-04T16:32:12.925Z,2.13
2022-08-04T16:35:05.215Z,2.20
2022-08-04T16:37:38.776Z,2.35
2022-08-04T16:40:39.197Z,3.25
2022-08-04T16:43:16.923Z,1.90
2022-08-04T16:45:58.633Z,2.50
2022-08-04T16:48:27.690Z,2.00
2022-08-04T16:51:07.922Z,3.20
2022-08-04T16:54:02.962Z,1.92
2022-08-04T16:56:32.856Z,2.28
2022-08-04T16:59:05.848Z,2.00
2022-08-04T17:01:34.388Z,2.30
2022-08-04T17:04:05.062Z,2.63
2022-08-04T17:06:35.929Z,2.50
2022-08-04T17:09:13.440Z,2.25
2022-08-04T17:11:41.004Z,2.40
2022-08-04T17:14:08.003Z,2.35
2022-08-04T17:16:39.950Z,2.47
2022-08-04T17:19:19.792Z,2.55
2022-08-04T17:21:47.740Z,3.15
2022-08-04T17:24:17.767Z,2.40
2022-08-04T17:26:53.756Z,2.42
2022-08-04T17:29:22.424Z,3.13
2022-08-04T17:31:48.940Z,2.33
2022-08-04T17:34:21.178Z,2.45
2022-08-04T17:36:48.265Z,2.75
2022-08-04T17:39:17.689Z,1.92
2022-08-04T17:41:49.020Z,2.75
2022-08-04T17:44:15.753Z,1.90
2022-08-04T17:46:48.240Z,2.50
2022-08-04T17:49:16.811Z,2.28
2022-08-04T17:54:39.418Z,2.67
2022-08-04T17:57:20.042Z,2.50
2022-08-04T17:59:57.549Z,2.60
2022-08-04T18:02:31.779Z,2.85
2022-08-04T18:05:07.784Z,3.00
2022-08-04T18:08:41.355Z,4.13
2022-08-04T18:10:55.844Z,3.25
2022-08-04T18:13:27.690Z,3.10
2022-08-04T18:16:02.455Z,2.95
2022-08-04T18:18:29.542Z,3.28
2022-08-04T18:20:56.203Z,2.50
2022-08-04T18:23:31.879Z,2.53
2022-08-04T18:28:46.200Z,2.67
2022-08-04T18:31:13.118Z,2.95
2022-08-04T18:33:43.068Z,2.83
2022-08-04T18:36:34.146Z,2.47
2022-08-04T18:39:12.133Z,3.90
2022-08-04T18:42:03.682Z,3.08
2022-08-04T18:44:31.855Z,2.90
2022-08-04T18:47:22.512Z,2.70
2022-08-04T18:50:59.844Z,2.70
2022-08-04T18:52:32.386Z,2.88
2022-08-04T18:55:01.956Z,2.55
2022-08-04T18:57:58.768Z,2.97
2022-08-04T19:00:16.370Z,2.67
2022-08-04T19:02:46.386Z,2.47
2022-08-04T19:05:17.043Z,3.40
2022-08-04T19:08:11.206Z,2.47
2022-08-04T19:10:31.230Z,2.40
2022-08-04T19:12:58.749Z,2.50
2022-08-04T19:15:34.002Z,2.65
2022-08-04T19:18:01.728Z,2.75
2022-08-04T19:20:29.606Z,3.30
2022-08-04T19:24:27.076Z,3.10
2022-08-04T19:26:01.656Z,2.95
2022-08-04T19:28:31.664Z,2.53
2022-08-04T19:33:30.446Z,3.10
2022-08-04T19:36:13.746Z,2.78
2022-08-04T19:38:43.956Z,3.08
2022-08-04T19:41:14.262Z,3.40
2022-08-04T19:43:43.858Z,3.45
2022-08-04T19:46:10.753Z,3.03
2022-08-04T19:48:39.117Z,3.17
2022-08-04T19:51:05.519Z,3.28
2022-08-04T19:53:37.306Z,3.30
2022-08-04T19:56:04.999Z,4.13
2022-08-04T19:58:31.451Z,4.13
2022-08-04T20:00:57.842Z,3.00
2022-08-04T20:04:09.594Z,3.58
2022-08-04T20:06:10.742Z,3.25
2022-08-04T20:08:37.164Z,3.20
2022-08-04T20:11:03.721Z,3.17
2022-08-04T20:13:36.959Z,4.50
2022-08-04T20:16:04.501Z,3.50
2022-08-04T20:18:35.034Z,3.42
2022-08-04T20:21:03.411Z,4.28
2022-08-04T20:23:48.739Z,3.00
2022-08-04T20:26:16.512Z,3.75
2022-08-04T20:28:43.005Z,2.90
2022-08-04T20:31:18.459Z,3.70
2022-08-04T20:33:49.173Z,3.58
2022-08-04T20:36:20.099Z,3.28
2022-08-04T20:38:51.664Z,4.10
2022-08-04T20:41:19.089Z,3.30
2022-08-04T20:43:46.660Z,3.95
2022-08-04T20:46:25.581Z,4.00
2022-08-04T20:48:56.830Z,4.38
2022-08-04T20:51:25.908Z,3.38
2022-08-04T20:54:00.258Z,3.05
2022-08-04T20:56:31.250Z,3.65
2022-08-04T20:58:59.470Z,3.90
2022-08-04T21:01:29.631Z,3.83
2022-08-04T21:04:27.673Z,3.70
2022-08-04T21:06:55.043Z,3.72
2022-08-04T21:09:37.280Z,4.13
2022-08-04T21:12:08.653Z,3.90
2022-08-04T21:14:35.082Z,3.70
2022-08-04T21:17:02.943Z,4.53
2022-08-04T21:19:31.517Z,3.53
2022-08-04T21:21:58.109Z,3.80
2022-08-04T21:24:26.321Z,4.10
2022-08-04T21:26:56.686Z,4.28
2022-08-04T21:29:24.464Z,4.28
2022-08-04T21:32:07.755Z,3.50
2022-08-04T21:34:39.494Z,4.00
2022-08-04T21:39:50.514Z,5.15
2022-08-04T21:42:28.920Z,4.22
2022-08-04T21:44:57.182Z,3.92
2022-08-04T21:47:24.030Z,3.20
2022-08-04T21:49:56.349Z,3.00
2022-08-04T21:52:23.605Z,2.85
2022-08-04T21:54:54.654Z,3.05
2022-08-04T21:57:24.879Z,3.33
2022-08-04T21:59:52.184Z,3.97
2022-08-04T22:02:18.701Z,3.53
2022-08-04T22:04:45.203Z,3.33
2022-08-04T22:07:12.005Z,2.65
2022-08-04T22:09:41.553Z,3.42
2022-08-04T22:12:12.500Z,3.83
2022-08-04T22:14:39.332Z,3.28
2022-08-04T22:17:05.762Z,3.42
2022-08-04T22:19:40.363Z,2.92
2022-08-04T22:22:25.054Z,3.00
2022-08-04T22:24:53.680Z,2.78
2022-08-04T22:27:38.618Z,3.38
2022-08-04T22:30:09.392Z,2.60
2022-08-04T22:32:43.478Z,2.88
2022-08-04T22:35:36.419Z,3.30
2022-08-04T22:38:06.200Z,2.83
2022-08-04T22:40:35.799Z,2.75
2022-08-04T22:43:03.283Z,2.42
2022-08-04T22:45:44.747Z,2.83
2022-08-04T22:48:11.385Z,2.53
2022-08-04T22:50:37.761Z,2.30
2022-08-04T22:53:04.183Z,2.30
2022-08-04T22:56:06.961Z,2.35
2022-08-04T22:58:17.873Z,2.30
2022-08-04T23:00:44.465Z,2.53
2022-08-04T23:03:37.177Z,2.60
2022-08-04T23:06:07.008Z,2.40
2022-08-04T23:08:37.950Z,2.15
2022-08-04T23:11:07.725Z,2.28
2022-08-04T23:13:34.117Z,2.25
2022-08-04T23:16:04.602Z,2.92
2022-08-04T23:18:36.114Z,2.38
2022-08-04T23:21:07.614Z,2.53
2022-08-04T23:23:34.648Z,2.85
2022-08-04T23:26:07.283Z,2.47
2022-08-04T23:28:35.131Z,2.55
2022-08-04T23:31:02.956Z,2.67
2022-08-04T23:33:50.652Z,2.17
2022-08-04T23:36:15.830Z,4.85
2022-08-04T23:38:42.339Z,3.25
2022-08-04T23:41:17.236Z,4.72
2022-08-04T23:43:54.973Z,3.28
2022-08-04T23:46:22.072Z,3.03
2022-08-04T23:48:48.792Z,2.80
2022-08-04T23:51:15.724Z,4.13
2022-08-04T23:54:01.621Z,3.17
2022-08-04T23:56:29.998Z,2.97
2022-08-04T23:58:56.424Z,3.53
